EST,Max TemperatureF,Mean TemperatureF,Min TemperatureF,Max Dew PointF,MeanDew PointF,Min DewpointF,Max Humidity, Mean Humidity, Min Humidity, Max Sea Level PressureIn, Mean Sea Level PressureIn, Min Sea Level PressureIn, Max VisibilityMiles, Mean VisibilityMiles, Min VisibilityMiles, Max Wind SpeedMPH, Mean Wind SpeedMPH, Max Gust SpeedMPH,PrecipitationIn, CloudCover, Events, WindDirDegrees
2012-11-1,45,43,41,39,37,36,89,80,70,29.52,29.50,29.48,10,10,10,7,4,,0.00,8,,199
2012-11-2,45,42,39,37,33,28,82,70,57,29.66,29.57,29.52,10,10,10,10,7,,0.00,7,,272
2012-11-3,43,40,37,36,31,27,92,75,57,29.86,29.76,29.66,10,10,10,9,5,16,0.00,8,,312
2012-11-4,39,37,34,34,29,23,85,75,64,29.99,29.92,29.87,10,10,10,10,7,16,0.00,8,,328
2012-11-5,36,32,28,21,18,14,69,57,44,30.12,30.04,29.97,10,10,10,14,8,21,0.00,8,,335
2012-11-6,37,29,21,21,16,10,92,64,35,30.21,30.17,30.12,10,10,10,10,3,,0.00,1,,83
2012-11-7,34,28,21,21,17,12,77,62,47,30.18,30.06,29.91,10,10,10,10,5,18,0.00,2,,344
2012-11-8,36,32,28,30,24,19,89,76,63,29.91,29.88,29.84,10,9,3,14,10,25,0.00,8,,338
2012-11-9,45,36,27,32,25,21,85,63,40,30.11,30.02,29.91,10,10,10,10,5,16,0.00,3,,327
2012-11-10,46,40,34,34,29,21,92,67,41,30.41,30.29,30.11,10,10,10,9,4,,0.00,4,,15
2012-11-11,66,54,41,39,33,19,71,53,34,30.41,30.37,30.32,10,10,10,15,9,18,0.00,4,,134
2012-11-12,72,58,43,48,41,34,76,55,33,30.38,30.26,30.08,10,10,0,20,11,29,0.00,1,,144
2012-11-13,64,46,28,52,34,25,93,74,55,30.46,30.28,30.02,10,10,5,22,7,31,0.37,7,,290
2012-11-14,41,33,25,27,23,19,92,70,48,30.58,30.52,30.46,10,10,10,9,4,16,0.00,0,,99
2012-11-15,39,30,21,27,23,19,96,74,52,30.49,30.40,30.32,10,10,10,8,3,,0.00,0,,89
2012-11-16,37,28,19,27,23,18,100,80,59,30.47,30.37,30.31,10,10,7,7,3,,0.00,2,,122
2012-11-17,41,31,21,28,23,18,92,69,45,30.68,30.60,30.47,10,10,10,8,5,,0.00,0,,114
2012-11-18,48,35,21,27,22,18,96,65,34,30.70,30.64,30.59,10,10,10,10,4,,0.00,0,,136
2012-11-19,46,36,25,28,24,21,92,65,38,30.58,30.43,30.27,10,10,10,12,6,,0.00,0,,126
2012-11-20,43,34,25,27,24,19,88,71,53,30.26,30.18,30.14,10,10,9,9,4,,0.00,0,,128
2012-11-21,52,40,28,28,26,21,92,62,32,30.25,30.20,30.16,10,10,10,6,2,,0.00,2,,198
2012-11-22,,,,,,,,,,,,,,,,,,,,,,
2012-11-23,,,,,,,,,,,,,,,,,,,,,,
2012-11-24,,,,,,,,,,,,,,,,,,,,,,
2012-11-25,,,,,,,,,,,,,,,,,,,,,,
2012-11-26,36,35,34,25,22,19,69,61,52,30.04,29.97,29.92,10,10,10,15,12,23,0.00,4,,299
2012-11-27,,,,,,,,,,,,,,,,,,,,,,
2012-11-28,36,33,30,27,21,18,78,65,51,30.13,30.11,30.09,10,10,4,9,6,16,0.00,7,,237
2012-11-29,39,33,27,27,20,14,92,66,40,30.24,30.15,30.09,10,10,7,17,10,29,0.00,7,,273
2012-11-30,25,21,16,19,10,5,81,67,52,30.52,30.44,30.25,10,10,10,12,7,17,0.00,6,,342